sensor_id;sensor_type;location;lat;lon;timestamp;P1;durP1;ratioP1;P2;durP2;ratioP2
12005;SDS011;6062;47.294;12.182;2023-05-23T00:00:43;7.45;;;4.97;;
12005;SDS011;6062;47.294;12.182;2023-05-23T00:03:09;6.28;;;5.43;;
12005;SDS011;6062;47.294;12.182;2023-05-23T00:05:35;9.40;;;5.60;;
12005;SDS011;6062;47.294;12.182;2023-05-23T00:08:01;7.30;;;5.80;;
12005;SDS011;6062;47.294;12.182;2023-05-23T00:10:26;7.22;;;6.20;;
12005;SDS011;6062;47.294;12.182;2023-05-23T00:12:52;6.53;;;5.78;;
12005;SDS011;6062;47.294;12.182;2023-05-23T00:15:19;6.72;;;5.90;;
12005;SDS011;6062;47.294;12.182;2023-05-23T00:17:44;6.05;;;5.45;;
12005;SDS011;6062;47.294;12.182;2023-05-23T00:20:10;6.47;;;5.75;;
12005;SDS011;6062;47.294;12.182;2023-05-23T00:22:37;7.95;;;5.88;;
12005;SDS011;6062;47.294;12.182;2023-05-23T00:25:06;7.30;;;5.95;;
12005;SDS011;6062;47.294;12.182;2023-05-23T00:27:33;8.07;;;6.15;;
12005;SDS011;6062;47.294;12.182;2023-05-23T00:30:00;8.10;;;6.75;;
12005;SDS011;6062;47.294;12.182;2023-05-23T00:32:26;7.20;;;6.07;;
12005;SDS011;6062;47.294;12.182;2023-05-23T00:34:52;6.43;;;5.78;;
12005;SDS011;6062;47.294;12.182;2023-05-23T00:37:18;7.60;;;6.13;;
12005;SDS011;6062;47.294;12.182;2023-05-23T00:39:46;7.85;;;6.43;;
12005;SDS011;6062;47.294;12.182;2023-05-23T00:42:12;7.25;;;6.32;;
12005;SDS011;6062;47.294;12.182;2023-05-23T00:44:38;8.88;;;6.70;;
12005;SDS011;6062;47.294;12.182;2023-05-23T00:47:04;7.85;;;6.38;;
12005;SDS011;6062;47.294;12.182;2023-05-23T00:49:32;7.68;;;6.20;;
12005;SDS011;6062;47.294;12.182;2023-05-23T00:51:59;7.22;;;6.07;;
12005;SDS011;6062;47.294;12.182;2023-05-23T00:54:27;6.68;;;5.85;;
12005;SDS011;6062;47.294;12.182;2023-05-23T00:56:57;6.25;;;5.38;;
12005;SDS011;6062;47.294;12.182;2023-05-23T00:59:24;7.40;;;5.95;;
12005;SDS011;6062;47.294;12.182;2023-05-23T01:01:51;7.57;;;6.22;;
12005;SDS011;6062;47.294;12.182;2023-05-23T01:04:19;8.52;;;5.53;;
12005;SDS011;6062;47.294;12.182;2023-05-23T01:06:50;6.82;;;5.40;;
12005;SDS011;6062;47.294;12.182;2023-05-23T01:09:18;7.45;;;5.88;;
12005;SDS011;6062;47.294;12.182;2023-05-23T01:14:48;5.90;;;4.90;;
12005;SDS011;6062;47.294;12.182;2023-05-23T01:17:25;6.03;;;5.22;;
12005;SDS011;6062;47.294;12.182;2023-05-23T01:19:59;5.75;;;5.15;;
12005;SDS011;6062;47.294;12.182;2023-05-23T01:22:53;6.20;;;5.32;;
12005;SDS011;6062;47.294;12.182;2023-05-23T01:28:34;5.55;;;4.72;;
12005;SDS011;6062;47.294;12.182;2023-05-23T01:31:09;7.68;;;4.55;;
12005;SDS011;6062;47.294;12.182;2023-05-23T01:33:36;5.72;;;4.72;;
12005;SDS011;6062;47.294;12.182;2023-05-23T01:36:04;5.15;;;4.55;;
12005;SDS011;6062;47.294;12.182;2023-05-23T01:38:32;6.80;;;4.72;;
12005;SDS011;6062;47.294;12.182;2023-05-23T01:40:57;6.28;;;4.45;;
12005;SDS011;6062;47.294;12.182;2023-05-23T01:43:23;5.97;;;4.30;;
12005;SDS011;6062;47.294;12.182;2023-05-23T01:45:50;5.55;;;4.57;;
12005;SDS011;6062;47.294;12.182;2023-05-23T01:48:18;4.72;;;4.18;;
12005;SDS011;6062;47.294;12.182;2023-05-23T01:50:47;5.20;;;4.40;;
12005;SDS011;6062;47.294;12.182;2023-05-23T01:53:14;6.70;;;3.95;;
12005;SDS011;6062;47.294;12.182;2023-05-23T01:55:46;5.45;;;4.22;;
12005;SDS011;6062;47.294;12.182;2023-05-23T01:58:13;6.35;;;4.20;;
12005;SDS011;6062;47.294;12.182;2023-05-23T02:00:39;4.68;;;4.15;;
12005;SDS011;6062;47.294;12.182;2023-05-23T02:03:05;5.18;;;4.43;;
12005;SDS011;6062;47.294;12.182;2023-05-23T02:05:30;5.63;;;4.88;;
12005;SDS011;6062;47.294;12.182;2023-05-23T02:07:56;5.25;;;4.75;;
12005;SDS011;6062;47.294;12.182;2023-05-23T02:10:22;6.28;;;4.80;;
12005;SDS011;6062;47.294;12.182;2023-05-23T02:12:48;5.13;;;4.43;;
12005;SDS011;6062;47.294;12.182;2023-05-23T02:15:13;5.80;;;4.43;;
12005;SDS011;6062;47.294;12.182;2023-05-23T02:17:41;5.20;;;4.22;;
12005;SDS011;6062;47.294;12.182;2023-05-23T02:20:07;5.55;;;4.82;;
12005;SDS011;6062;47.294;12.182;2023-05-23T02:22:34;5.07;;;4.47;;
12005;SDS011;6062;47.294;12.182;2023-05-23T02:25:00;7.03;;;5.15;;
12005;SDS011;6062;47.294;12.182;2023-05-23T02:27:26;4.85;;;4.30;;
12005;SDS011;6062;47.294;12.182;2023-05-23T02:29:52;5.38;;;4.60;;
12005;SDS011;6062;47.294;12.182;2023-05-23T02:32:18;6.47;;;4.72;;
12005;SDS011;6062;47.294;12.182;2023-05-23T02:34:44;4.90;;;4.32;;
12005;SDS011;6062;47.294;12.182;2023-05-23T02:37:11;5.95;;;5.28;;
12005;SDS011;6062;47.294;12.182;2023-05-23T02:39:37;6.63;;;4.72;;
12005;SDS011;6062;47.294;12.182;2023-05-23T02:42:03;6.13;;;4.82;;
12005;SDS011;6062;47.294;12.182;2023-05-23T02:44:29;6.60;;;4.78;;
12005;SDS011;6062;47.294;12.182;2023-05-23T02:46:55;5.70;;;4.93;;
12005;SDS011;6062;47.294;12.182;2023-05-23T02:49:21;5.72;;;4.95;;
12005;SDS011;6062;47.294;12.182;2023-05-23T02:51:46;5.55;;;4.78;;
12005;SDS011;6062;47.294;12.182;2023-05-23T02:54:12;6.82;;;4.95;;
12005;SDS011;6062;47.294;12.182;2023-05-23T02:56:38;5.50;;;4.32;;
12005;SDS011;6062;47.294;12.182;2023-05-23T02:59:04;6.72;;;4.60;;
12005;SDS011;6062;47.294;12.182;2023-05-23T03:01:29;6.70;;;5.05;;
12005;SDS011;6062;47.294;12.182;2023-05-23T03:03:55;5.07;;;4.38;;
12005;SDS011;6062;47.294;12.182;2023-05-23T03:06:21;7.55;;;4.82;;
12005;SDS011;6062;47.294;12.182;2023-05-23T03:08:47;5.78;;;4.90;;
12005;SDS011;6062;47.294;12.182;2023-05-23T03:11:13;6.13;;;4.85;;
12005;SDS011;6062;47.294;12.182;2023-05-23T03:13:38;6.03;;;4.35;;
12005;SDS011;6062;47.294;12.182;2023-05-23T03:16:04;5.57;;;4.50;;
12005;SDS011;6062;47.294;12.182;2023-05-23T03:18:30;6.28;;;5.05;;
12005;SDS011;6062;47.294;12.182;2023-05-23T03:20:56;6.43;;;4.70;;
12005;SDS011;6062;47.294;12.182;2023-05-23T03:23:21;5.40;;;4.82;;
12005;SDS011;6062;47.294;12.182;2023-05-23T03:25:47;5.78;;;4.82;;
12005;SDS011;6062;47.294;12.182;2023-05-23T03:28:13;5.75;;;4.68;;
12005;SDS011;6062;47.294;12.182;2023-05-23T03:30:39;5.78;;;4.90;;
12005;SDS011;6062;47.294;12.182;2023-05-23T03:33:05;6.10;;;4.78;;
12005;SDS011;6062;47.294;12.182;2023-05-23T03:35:31;7.55;;;5.28;;
12005;SDS011;6062;47.294;12.182;2023-05-23T03:37:57;6.47;;;5.35;;
12005;SDS011;6062;47.294;12.182;2023-05-23T03:40:22;6.93;;;4.90;;
12005;SDS011;6062;47.294;12.182;2023-05-23T03:42:50;9.55;;;5.75;;
12005;SDS011;6062;47.294;12.182;2023-05-23T03:45:30;5.82;;;5.22;;
12005;SDS011;6062;47.294;12.182;2023-05-23T03:47:59;4.97;;;4.47;;
12005;SDS011;6062;47.294;12.182;2023-05-23T03:50:25;6.05;;;5.13;;
12005;SDS011;6062;47.294;12.182;2023-05-23T03:52:52;5.25;;;4.75;;
12005;SDS011;6062;47.294;12.182;2023-05-23T03:55:21;5.93;;;4.80;;
12005;SDS011;6062;47.294;12.182;2023-05-23T03:57:48;6.82;;;5.00;;
12005;SDS011;6062;47.294;12.182;2023-05-23T04:00:15;6.50;;;5.65;;
12005;SDS011;6062;47.294;12.182;2023-05-23T04:02:42;5.85;;;5.07;;
12005;SDS011;6062;47.294;12.182;2023-05-23T04:05:10;6.47;;;4.90;;
12005;SDS011;6062;47.294;12.182;2023-05-23T04:07:37;5.72;;;5.13;;
12005;SDS011;6062;47.294;12.182;2023-05-23T04:10:03;5.72;;;5.13;;
12005;SDS011;6062;47.294;12.182;2023-05-23T04:12:30;6.18;;;5.00;;
12005;SDS011;6062;47.294;12.182;2023-05-23T04:14:56;5.55;;;4.25;;
12005;SDS011;6062;47.294;12.182;2023-05-23T04:17:22;6.38;;;4.63;;
12005;SDS011;6062;47.294;12.182;2023-05-23T04:19:49;6.15;;;5.28;;
12005;SDS011;6062;47.294;12.182;2023-05-23T04:22:15;5.68;;;4.95;;
12005;SDS011;6062;47.294;12.182;2023-05-23T04:24:41;5.53;;;4.82;;
12005;SDS011;6062;47.294;12.182;2023-05-23T04:27:07;6.10;;;4.72;;
12005;SDS011;6062;47.294;12.182;2023-05-23T04:29:33;6.10;;;5.00;;
12005;SDS011;6062;47.294;12.182;2023-05-23T04:32:00;7.43;;;5.15;;
12005;SDS011;6062;47.294;12.182;2023-05-23T04:34:26;5.75;;;4.72;;
12005;SDS011;6062;47.294;12.182;2023-05-23T04:36:53;6.65;;;4.63;;
12005;SDS011;6062;47.294;12.182;2023-05-23T04:39:18;5.43;;;4.72;;
12005;SDS011;6062;47.294;12.182;2023-05-23T04:41:44;5.18;;;4.50;;
12005;SDS011;6062;47.294;12.182;2023-05-23T04:44:10;6.15;;;4.50;;
12005;SDS011;6062;47.294;12.182;2023-05-23T04:46:38;5.43;;;4.63;;
12005;SDS011;6062;47.294;12.182;2023-05-23T04:49:09;5.68;;;5.07;;
12005;SDS011;6062;47.294;12.182;2023-05-23T04:51:35;5.53;;;4.95;;
12005;SDS011;6062;47.294;12.182;2023-05-23T04:54:01;5.38;;;4.70;;
12005;SDS011;6062;47.294;12.182;2023-05-23T04:56:26;6.43;;;5.40;;
12005;SDS011;6062;47.294;12.182;2023-05-23T04:58:53;6.20;;;4.90;;
12005;SDS011;6062;47.294;12.182;2023-05-23T05:01:19;5.97;;;5.00;;
12005;SDS011;6062;47.294;12.182;2023-05-23T05:03:49;7.57;;;5.70;;
12005;SDS011;6062;47.294;12.182;2023-05-23T05:06:16;5.70;;;5.10;;
12005;SDS011;6062;47.294;12.182;2023-05-23T05:08:42;6.97;;;5.47;;
12005;SDS011;6062;47.294;12.182;2023-05-23T05:11:08;5.97;;;5.10;;
12005;SDS011;6062;47.294;12.182;2023-05-23T05:13:34;5.13;;;4.63;;
12005;SDS011;6062;47.294;12.182;2023-05-23T05:16:00;5.80;;;5.20;;
12005;SDS011;6062;47.294;12.182;2023-05-23T05:18:27;6.70;;;4.45;;
12005;SDS011;6062;47.294;12.182;2023-05-23T05:20:53;5.07;;;4.57;;
12005;SDS011;6062;47.294;12.182;2023-05-23T05:23:20;5.45;;;4.60;;
12005;SDS011;6062;47.294;12.182;2023-05-23T05:25:52;6.18;;;4.78;;
12005;SDS011;6062;47.294;12.182;2023-05-23T05:28:20;7.20;;;5.68;;
12005;SDS011;6062;47.294;12.182;2023-05-23T05:30:46;9.20;;;6.82;;
12005;SDS011;6062;47.294;12.182;2023-05-23T05:33:12;11.18;;;9.23;;
12005;SDS011;6062;47.294;12.182;2023-05-23T05:35:38;23.33;;;16.23;;
12005;SDS011;6062;47.294;12.182;2023-05-23T05:38:04;45.65;;;31.20;;
12005;SDS011;6062;47.294;12.182;2023-05-23T05:40:30;14.52;;;10.48;;
12005;SDS011;6062;47.294;12.182;2023-05-23T05:42:56;13.52;;;8.07;;
12005;SDS011;6062;47.294;12.182;2023-05-23T05:45:22;8.88;;;6.00;;
12005;SDS011;6062;47.294;12.182;2023-05-23T05:47:48;6.18;;;4.85;;
12005;SDS011;6062;47.294;12.182;2023-05-23T05:50:13;7.45;;;5.93;;
12005;SDS011;6062;47.294;12.182;2023-05-23T05:52:39;12.10;;;10.50;;
12005;SDS011;6062;47.294;12.182;2023-05-23T05:55:06;9.82;;;8.38;;
12005;SDS011;6062;47.294;12.182;2023-05-23T05:57:35;6.63;;;5.75;;
12005;SDS011;6062;47.294;12.182;2023-05-23T06:00:06;6.75;;;4.63;;
12005;SDS011;6062;47.294;12.182;2023-05-23T06:02:39;7.65;;;5.53;;
12005;SDS011;6062;47.294;12.182;2023-05-23T06:05:11;14.80;;;4.15;;
12005;SDS011;6062;47.294;12.182;2023-05-23T06:07:38;2.95;;;2.65;;
12005;SDS011;6062;47.294;12.182;2023-05-23T06:10:04;4.38;;;3.20;;
12005;SDS011;6062;47.294;12.182;2023-05-23T06:12:32;5.60;;;4.78;;
12005;SDS011;6062;47.294;12.182;2023-05-23T06:14:58;4.75;;;3.80;;
12005;SDS011;6062;47.294;12.182;2023-05-23T06:17:24;5.55;;;3.25;;
12005;SDS011;6062;47.294;12.182;2023-05-23T06:19:50;4.55;;;3.05;;
12005;SDS011;6062;47.294;12.182;2023-05-23T06:22:16;2.88;;;2.58;;
12005;SDS011;6062;47.294;12.182;2023-05-23T06:24:42;6.57;;;4.78;;
12005;SDS011;6062;47.294;12.182;2023-05-23T06:27:08;7.43;;;5.75;;
12005;SDS011;6062;47.294;12.182;2023-05-23T06:29:34;7.40;;;5.50;;
12005;SDS011;6062;47.294;12.182;2023-05-23T06:32:00;6.07;;;4.35;;
12005;SDS011;6062;47.294;12.182;2023-05-23T06:34:27;5.57;;;4.47;;
12005;SDS011;6062;47.294;12.182;2023-05-23T06:36:53;5.32;;;4.18;;
12005;SDS011;6062;47.294;12.182;2023-05-23T06:39:19;9.20;;;5.10;;
12005;SDS011;6062;47.294;12.182;2023-05-23T06:41:45;5.28;;;4.38;;
12005;SDS011;6062;47.294;12.182;2023-05-23T06:44:12;4.25;;;3.65;;
12005;SDS011;6062;47.294;12.182;2023-05-23T06:46:38;4.22;;;3.83;;
12005;SDS011;6062;47.294;12.182;2023-05-23T06:49:04;6.80;;;4.68;;
12005;SDS011;6062;47.294;12.182;2023-05-23T06:51:30;8.48;;;5.47;;
12005;SDS011;6062;47.294;12.182;2023-05-23T06:53:56;6.55;;;5.32;;
12005;SDS011;6062;47.294;12.182;2023-05-23T06:56:22;6.22;;;4.70;;
12005;SDS011;6062;47.294;12.182;2023-05-23T06:58:48;5.72;;;4.40;;
12005;SDS011;6062;47.294;12.182;2023-05-23T07:01:13;4.60;;;4.10;;
12005;SDS011;6062;47.294;12.182;2023-05-23T07:03:39;4.95;;;4.10;;
12005;SDS011;6062;47.294;12.182;2023-05-23T07:06:07;4.90;;;4.07;;
12005;SDS011;6062;47.294;12.182;2023-05-23T07:08:33;5.43;;;4.30;;
12005;SDS011;6062;47.294;12.182;2023-05-23T07:10:58;6.63;;;4.20;;
12005;SDS011;6062;47.294;12.182;2023-05-23T07:13:24;4.63;;;4.10;;
12005;SDS011;6062;47.294;12.182;2023-05-23T07:15:50;4.45;;;3.78;;
12005;SDS011;6062;47.294;12.182;2023-05-23T07:18:16;4.13;;;3.67;;
12005;SDS011;6062;47.294;12.182;2023-05-23T07:20:41;4.50;;;3.88;;
12005;SDS011;6062;47.294;12.182;2023-05-23T07:23:07;3.70;;;3.15;;
12005;SDS011;6062;47.294;12.182;2023-05-23T07:25:33;3.97;;;3.58;;
12005;SDS011;6062;47.294;12.182;2023-05-23T07:27:59;3.03;;;2.70;;
12005;SDS011;6062;47.294;12.182;2023-05-23T07:30:24;7.28;;;6.53;;
12005;SDS011;6062;47.294;12.182;2023-05-23T07:32:50;3.38;;;3.00;;
12005;SDS011;6062;47.294;12.182;2023-05-23T07:35:19;3.17;;;2.88;;
12005;SDS011;6062;47.294;12.182;2023-05-23T07:37:50;3.50;;;2.70;;
12005;SDS011;6062;47.294;12.182;2023-05-23T07:40:17;3.65;;;2.45;;
12005;SDS011;6062;47.294;12.182;2023-05-23T07:42:43;3.08;;;2.30;;
12005;SDS011;6062;47.294;12.182;2023-05-23T07:45:09;3.22;;;2.70;;
12005;SDS011;6062;47.294;12.182;2023-05-23T07:47:36;11.57;;;8.50;;
12005;SDS011;6062;47.294;12.182;2023-05-23T07:50:02;12.13;;;9.52;;
12005;SDS011;6062;47.294;12.182;2023-05-23T07:52:29;7.05;;;5.20;;
12005;SDS011;6062;47.294;12.182;2023-05-23T07:54:56;3.80;;;3.28;;
12005;SDS011;6062;47.294;12.182;2023-05-23T07:57:22;2.50;;;2.17;;
12005;SDS011;6062;47.294;12.182;2023-05-23T07:59:48;2.40;;;1.70;;
12005;SDS011;6062;47.294;12.182;2023-05-23T08:02:15;1.85;;;1.60;;
12005;SDS011;6062;47.294;12.182;2023-05-23T08:04:41;2.58;;;1.55;;
12005;SDS011;6062;47.294;12.182;2023-05-23T08:07:07;1.95;;;1.23;;
12005;SDS011;6062;47.294;12.182;2023-05-23T08:09:33;1.80;;;1.20;;
12005;SDS011;6062;47.294;12.182;2023-05-23T08:12:00;1.92;;;1.42;;
12005;SDS011;6062;47.294;12.182;2023-05-23T08:14:25;5.00;;;4.05;;
12005;SDS011;6062;47.294;12.182;2023-05-23T08:16:51;4.28;;;3.25;;
12005;SDS011;6062;47.294;12.182;2023-05-23T08:19:17;3.28;;;1.80;;
12005;SDS011;6062;47.294;12.182;2023-05-23T08:21:43;1.83;;;1.50;;
12005;SDS011;6062;47.294;12.182;2023-05-23T08:24:09;2.42;;;1.92;;
12005;SDS011;6062;47.294;12.182;2023-05-23T08:26:36;2.72;;;2.28;;
12005;SDS011;6062;47.294;12.182;2023-05-23T08:29:03;3.08;;;2.00;;
12005;SDS011;6062;47.294;12.182;2023-05-23T08:31:30;2.72;;;1.73;;
12005;SDS011;6062;47.294;12.182;2023-05-23T08:33:57;2.40;;;1.65;;
12005;SDS011;6062;47.294;12.182;2023-05-23T08:36:23;2.08;;;1.88;;
12005;SDS011;6062;47.294;12.182;2023-05-23T08:38:49;2.42;;;1.55;;
12005;SDS011;6062;47.294;12.182;2023-05-23T08:41:23;4.70;;;1.77;;
12005;SDS011;6062;47.294;12.182;2023-05-23T08:43:49;4.18;;;3.47;;
12005;SDS011;6062;47.294;12.182;2023-05-23T08:46:16;1.80;;;1.70;;
12005;SDS011;6062;47.294;12.182;2023-05-23T08:48:42;2.75;;;1.30;;
12005;SDS011;6062;47.294;12.182;2023-05-23T08:51:19;1.65;;;1.30;;
12005;SDS011;6062;47.294;12.182;2023-05-23T08:53:47;1.95;;;1.60;;
12005;SDS011;6062;47.294;12.182;2023-05-23T08:56:13;1.80;;;1.17;;
12005;SDS011;6062;47.294;12.182;2023-05-23T08:58:40;1.80;;;1.10;;
12005;SDS011;6062;47.294;12.182;2023-05-23T09:01:10;1.23;;;0.90;;
12005;SDS011;6062;47.294;12.182;2023-05-23T09:03:37;1.17;;;0.90;;
12005;SDS011;6062;47.294;12.182;2023-05-23T09:06:07;1.10;;;0.90;;
12005;SDS011;6062;47.294;12.182;2023-05-23T09:08:35;0.90;;;0.90;;
12005;SDS011;6062;47.294;12.182;2023-05-23T09:11:02;1.42;;;0.80;;
12005;SDS011;6062;47.294;12.182;2023-05-23T09:13:30;0.70;;;0.70;;
12005;SDS011;6062;47.294;12.182;2023-05-23T09:18:26;2.53;;;1.10;;
12005;SDS011;6062;47.294;12.182;2023-05-23T09:20:58;1.77;;;1.00;;
12005;SDS011;6062;47.294;12.182;2023-05-23T09:23:23;1.50;;;0.88;;
12005;SDS011;6062;47.294;12.182;2023-05-23T09:25:49;1.20;;;1.00;;
12005;SDS011;6062;47.294;12.182;2023-05-23T09:28:15;1.45;;;0.95;;
12005;SDS011;6062;47.294;12.182;2023-05-23T09:30:41;2.13;;;1.00;;
12005;SDS011;6062;47.294;12.182;2023-05-23T09:33:07;1.08;;;0.98;;
12005;SDS011;6062;47.294;12.182;2023-05-23T09:35:32;6.50;;;5.85;;
12005;SDS011;6062;47.294;12.182;2023-05-23T09:37:58;29.27;;;21.70;;
12005;SDS011;6062;47.294;12.182;2023-05-23T09:40:28;7.97;;;6.90;;
12005;SDS011;6062;47.294;12.182;2023-05-23T09:43:02;7.13;;;5.97;;
12005;SDS011;6062;47.294;12.182;2023-05-23T09:45:29;3.00;;;2.53;;
12005;SDS011;6062;47.294;12.182;2023-05-23T09:47:56;2.70;;;2.20;;
12005;SDS011;6062;47.294;12.182;2023-05-23T09:50:22;2.45;;;1.60;;
12005;SDS011;6062;47.294;12.182;2023-05-23T09:52:54;2.28;;;1.88;;
12005;SDS011;6062;47.294;12.182;2023-05-23T09:55:20;2.38;;;1.60;;
12005;SDS011;6062;47.294;12.182;2023-05-23T09:57:46;2.35;;;1.80;;
12005;SDS011;6062;47.294;12.182;2023-05-23T10:00:20;2.88;;;1.83;;
12005;SDS011;6062;47.294;12.182;2023-05-23T10:05:48;1.70;;;1.58;;
12005;SDS011;6062;47.294;12.182;2023-05-23T10:08:28;2.38;;;1.70;;
12005;SDS011;6062;47.294;12.182;2023-05-23T10:13:48;1.80;;;1.40;;
12005;SDS011;6062;47.294;12.182;2023-05-23T10:21:57;2.45;;;1.40;;
12005;SDS011;6062;47.294;12.182;2023-05-23T10:24:26;2.55;;;1.50;;
12005;SDS011;6062;47.294;12.182;2023-05-23T10:26:53;4.50;;;3.75;;
12005;SDS011;6062;47.294;12.182;2023-05-23T10:29:23;20.48;;;13.43;;
12005;SDS011;6062;47.294;12.182;2023-05-23T10:31:50;3.45;;;2.33;;
12005;SDS011;6062;47.294;12.182;2023-05-23T10:34:27;3.28;;;1.70;;
12005;SDS011;6062;47.294;12.182;2023-05-23T10:37:20;2.05;;;1.83;;
12005;SDS011;6062;47.294;12.182;2023-05-23T10:45:44;2.75;;;1.77;;
12005;SDS011;6062;47.294;12.182;2023-05-23T10:48:32;1.95;;;1.55;;
12005;SDS011;6062;47.294;12.182;2023-05-23T10:51:06;2.13;;;1.40;;
12005;SDS011;6062;47.294;12.182;2023-05-23T10:53:35;2.00;;;1.80;;
12005;SDS011;6062;47.294;12.182;2023-05-23T10:56:20;5.43;;;4.25;;
12005;SDS011;6062;47.294;12.182;2023-05-23T10:58:54;4.65;;;3.38;;
12005;SDS011;6062;47.294;12.182;2023-05-23T11:01:22;3.00;;;2.20;;
12005;SDS011;6062;47.294;12.182;2023-05-23T11:03:49;1.92;;;1.77;;
12005;SDS011;6062;47.294;12.182;2023-05-23T11:09:12;2.35;;;1.50;;
12005;SDS011;6062;47.294;12.182;2023-05-23T11:11:58;2.88;;;1.90;;
12005;SDS011;6062;47.294;12.182;2023-05-23T11:17:28;1.83;;;1.60;;
12005;SDS011;6062;47.294;12.182;2023-05-23T11:20:13;3.08;;;1.90;;
12005;SDS011;6062;47.294;12.182;2023-05-23T11:22:46;2.10;;;1.80;;
12005;SDS011;6062;47.294;12.182;2023-05-23T11:25:19;2.03;;;1.75;;
12005;SDS011;6062;47.294;12.182;2023-05-23T11:27:46;1.92;;;1.50;;
12005;SDS011;6062;47.294;12.182;2023-05-23T11:30:15;2.55;;;1.23;;
12005;SDS011;6062;47.294;12.182;2023-05-23T11:32:42;2.15;;;1.40;;
12005;SDS011;6062;47.294;12.182;2023-05-23T11:35:21;2.55;;;1.40;;
12005;SDS011;6062;47.294;12.182;2023-05-23T11:37:47;1.50;;;1.38;;
12005;SDS011;6062;47.294;12.182;2023-05-23T11:42:54;1.80;;;1.55;;
12005;SDS011;6062;47.294;12.182;2023-05-23T11:45:21;2.63;;;1.48;;
12005;SDS011;6062;47.294;12.182;2023-05-23T11:47:48;1.83;;;1.50;;
12005;SDS011;6062;47.294;12.182;2023-05-23T11:50:14;1.70;;;1.50;;
12005;SDS011;6062;47.294;12.182;2023-05-23T11:52:40;2.75;;;1.55;;
12005;SDS011;6062;47.294;12.182;2023-05-23T11:55:07;1.90;;;1.70;;
12005;SDS011;6062;47.294;12.182;2023-05-23T11:57:37;4.15;;;3.75;;
12005;SDS011;6062;47.294;12.182;2023-05-23T12:00:06;4.45;;;3.67;;
12005;SDS011;6062;47.294;12.182;2023-05-23T12:02:39;6.95;;;4.65;;
12005;SDS011;6062;47.294;12.182;2023-05-23T12:05:10;8.20;;;6.35;;
12005;SDS011;6062;47.294;12.182;2023-05-23T12:07:45;25.63;;;19.67;;
12005;SDS011;6062;47.294;12.182;2023-05-23T12:10:16;28.27;;;19.80;;
12005;SDS011;6062;47.294;12.182;2023-05-23T12:12:42;45.22;;;29.52;;
12005;SDS011;6062;47.294;12.182;2023-05-23T12:15:09;17.45;;;14.60;;
12005;SDS011;6062;47.294;12.182;2023-05-23T12:17:37;9.13;;;7.57;;
12005;SDS011;6062;47.294;12.182;2023-05-23T12:20:04;6.78;;;6.18;;
12005;SDS011;6062;47.294;12.182;2023-05-23T12:22:31;3.90;;;3.50;;
12005;SDS011;6062;47.294;12.182;2023-05-23T12:24:57;2.13;;;1.92;;
12005;SDS011;6062;47.294;12.182;2023-05-23T12:27:26;1.90;;;1.48;;
12005;SDS011;6062;47.294;12.182;2023-05-23T12:32:41;2.63;;;1.70;;
12005;SDS011;6062;47.294;12.182;2023-05-23T12:35:11;1.80;;;1.67;;
12005;SDS011;6062;47.294;12.182;2023-05-23T12:37:40;1.77;;;1.50;;
12005;SDS011;6062;47.294;12.182;2023-05-23T12:40:13;3.55;;;2.10;;
12005;SDS011;6062;47.294;12.182;2023-05-23T12:42:52;2.35;;;1.95;;
12005;SDS011;6062;47.294;12.182;2023-05-23T12:45:21;1.85;;;1.75;;
12005;SDS011;6062;47.294;12.182;2023-05-23T12:47:58;2.53;;;2.13;;
12005;SDS011;6062;47.294;12.182;2023-05-23T12:50:25;2.10;;;1.90;;
12005;SDS011;6062;47.294;12.182;2023-05-23T12:52:51;2.22;;;2.03;;
12005;SDS011;6062;47.294;12.182;2023-05-23T12:55:17;2.10;;;1.80;;
12005;SDS011;6062;47.294;12.182;2023-05-23T12:57:43;3.00;;;2.00;;
12005;SDS011;6062;47.294;12.182;2023-05-23T13:00:09;2.30;;;2.10;;
12005;SDS011;6062;47.294;12.182;2023-05-23T13:02:36;2.20;;;1.80;;
12005;SDS011;6062;47.294;12.182;2023-05-23T13:05:03;2.22;;;2.00;;
12005;SDS011;6062;47.294;12.182;2023-05-23T13:07:29;2.30;;;1.92;;
12005;SDS011;6062;47.294;12.182;2023-05-23T13:09:55;2.45;;;1.95;;
12005;SDS011;6062;47.294;12.182;2023-05-23T13:12:21;2.17;;;1.70;;
12005;SDS011;6062;47.294;12.182;2023-05-23T13:14:48;3.15;;;1.98;;
12005;SDS011;6062;47.294;12.182;2023-05-23T13:17:15;2.28;;;1.95;;
12005;SDS011;6062;47.294;12.182;2023-05-23T13:19:41;2.47;;;1.80;;
12005;SDS011;6062;47.294;12.182;2023-05-23T13:22:07;3.42;;;1.70;;
12005;SDS011;6062;47.294;12.182;2023-05-23T13:24:36;2.22;;;1.70;;
12005;SDS011;6062;47.294;12.182;2023-05-23T13:27:06;2.28;;;1.85;;
12005;SDS011;6062;47.294;12.182;2023-05-23T13:29:32;2.38;;;2.10;;
12005;SDS011;6062;47.294;12.182;2023-05-23T13:31:58;2.88;;;1.70;;
12005;SDS011;6062;47.294;12.182;2023-05-23T13:34:24;2.25;;;1.95;;
12005;SDS011;6062;47.294;12.182;2023-05-23T13:36:52;3.08;;;1.90;;
12005;SDS011;6062;47.294;12.182;2023-05-23T13:39:19;2.42;;;2.22;;
12005;SDS011;6062;47.294;12.182;2023-05-23T13:41:48;2.22;;;1.92;;
12005;SDS011;6062;47.294;12.182;2023-05-23T13:44:14;3.60;;;2.33;;
12005;SDS011;6062;47.294;12.182;2023-05-23T13:46:41;2.70;;;2.50;;
12005;SDS011;6062;47.294;12.182;2023-05-23T13:49:07;2.42;;;2.20;;
12005;SDS011;6062;47.294;12.182;2023-05-23T13:51:33;2.55;;;2.35;;
12005;SDS011;6062;47.294;12.182;2023-05-23T13:54:01;2.60;;;2.33;;
12005;SDS011;6062;47.294;12.182;2023-05-23T13:56:28;3.17;;;2.50;;
12005;SDS011;6062;47.294;12.182;2023-05-23T13:58:54;5.15;;;2.60;;
12005;SDS011;6062;47.294;12.182;2023-05-23T14:01:20;2.83;;;2.47;;
12005;SDS011;6062;47.294;12.182;2023-05-23T14:03:45;2.72;;;2.33;;
12005;SDS011;6062;47.294;12.182;2023-05-23T14:06:11;2.90;;;2.40;;
12005;SDS011;6062;47.294;12.182;2023-05-23T14:08:37;3.25;;;2.20;;
12005;SDS011;6062;47.294;12.182;2023-05-23T14:11:02;2.70;;;2.15;;
12005;SDS011;6062;47.294;12.182;2023-05-23T14:13:28;2.60;;;2.40;;
12005;SDS011;6062;47.294;12.182;2023-05-23T14:15:54;2.42;;;2.22;;
12005;SDS011;6062;47.294;12.182;2023-05-23T14:18:19;3.25;;;2.35;;
12005;SDS011;6062;47.294;12.182;2023-05-23T14:20:45;2.83;;;2.22;;
12005;SDS011;6062;47.294;12.182;2023-05-23T14:23:11;2.80;;;2.50;;
12005;SDS011;6062;47.294;12.182;2023-05-23T14:25:36;2.83;;;2.40;;
12005;SDS011;6062;47.294;12.182;2023-05-23T14:28:02;2.30;;;1.77;;
12005;SDS011;6062;47.294;12.182;2023-05-23T14:30:28;3.08;;;2.63;;
12005;SDS011;6062;47.294;12.182;2023-05-23T14:32:53;2.80;;;2.25;;
12005;SDS011;6062;47.294;12.182;2023-05-23T14:35:19;3.33;;;3.00;;
12005;SDS011;6062;47.294;12.182;2023-05-23T14:37:46;2.78;;;2.40;;
12005;SDS011;6062;47.294;12.182;2023-05-23T14:40:12;4.15;;;2.70;;
12005;SDS011;6062;47.294;12.182;2023-05-23T14:42:40;3.85;;;2.42;;
12005;SDS011;6062;47.294;12.182;2023-05-23T14:45:06;3.42;;;2.45;;
12005;SDS011;6062;47.294;12.182;2023-05-23T14:47:32;6.07;;;4.80;;
12005;SDS011;6062;47.294;12.182;2023-05-23T14:49:59;5.07;;;4.10;;
12005;SDS011;6062;47.294;12.182;2023-05-23T14:52:25;5.03;;;3.78;;
12005;SDS011;6062;47.294;12.182;2023-05-23T14:54:51;3.72;;;3.40;;
12005;SDS011;6062;47.294;12.182;2023-05-23T14:57:16;4.55;;;3.97;;
12005;SDS011;6062;47.294;12.182;2023-05-23T14:59:42;3.50;;;2.90;;
12005;SDS011;6062;47.294;12.182;2023-05-23T15:02:08;2.70;;;2.50;;
12005;SDS011;6062;47.294;12.182;2023-05-23T15:04:34;4.38;;;2.75;;
12005;SDS011;6062;47.294;12.182;2023-05-23T15:07:00;3.08;;;2.78;;
12005;SDS011;6062;47.294;12.182;2023-05-23T15:09:26;3.00;;;2.50;;
12005;SDS011;6062;47.294;12.182;2023-05-23T15:11:52;2.75;;;2.42;;
12005;SDS011;6062;47.294;12.182;2023-05-23T15:14:18;3.20;;;2.90;;
12005;SDS011;6062;47.294;12.182;2023-05-23T15:16:45;2.70;;;2.30;;
12005;SDS011;6062;47.294;12.182;2023-05-23T15:19:12;8.18;;;6.15;;
12005;SDS011;6062;47.294;12.182;2023-05-23T15:21:38;2.47;;;2.22;;
12005;SDS011;6062;47.294;12.182;2023-05-23T15:24:04;2.92;;;2.00;;
12005;SDS011;6062;47.294;12.182;2023-05-23T15:26:30;1.98;;;1.77;;